createdAt,value
2018-05-11T00:02:00.400Z,12.47
2018-05-11T00:04:29.468Z,12.45
2018-05-11T00:06:57.743Z,12.42
2018-05-11T00:09:26.023Z,12.41
2018-05-11T00:11:54.514Z,12.33
2018-05-11T00:14:22.887Z,12.31
2018-05-11T00:16:51.916Z,12.41
2018-05-11T00:19:20.195Z,12.44
2018-05-11T00:21:48.455Z,12.42
2018-05-11T00:24:17.497Z,12.32
2018-05-11T00:26:45.786Z,12.27
2018-05-11T00:29:14.075Z,12.24
2018-05-11T00:31:42.336Z,12.23
2018-05-11T00:34:11.531Z,12.24
2018-05-11T00:36:39.806Z,12.32
2018-05-11T00:39:08.055Z,12.31
2018-05-11T00:41:36.342Z,12.29
2018-05-11T00:44:04.595Z,12.20
2018-05-11T00:46:33.627Z,12.19
2018-05-11T00:49:01.924Z,12.17
2018-05-11T00:51:30.191Z,12.21
2018-05-11T00:53:59.229Z,12.21
2018-05-11T00:56:27.571Z,12.19
2018-05-11T00:58:55.888Z,12.18
2018-05-11T01:01:24.977Z,12.18
2018-05-11T01:03:54.090Z,12.12
2018-05-11T01:06:23.154Z,12.13
2018-05-11T01:08:51.417Z,12.15
2018-05-11T01:11:19.703Z,12.19
2018-05-11T01:13:47.959Z,12.14
2018-05-11T01:16:16.264Z,12.15
2018-05-11T01:18:45.306Z,12.07
2018-05-11T01:21:13.573Z,12.05
2018-05-11T01:23:42.629Z,11.95
2018-05-11T01:26:10.890Z,11.91
2018-05-11T01:28:39.173Z,11.85
2018-05-11T01:31:07.428Z,11.82
2018-05-11T01:33:36.497Z,11.77
2018-05-11T01:36:04.770Z,11.69
2018-05-11T01:38:33.034Z,11.75
2018-05-11T01:41:02.882Z,11.74
2018-05-11T01:43:31.163Z,11.70
2018-05-11T01:46:00.278Z,11.63
2018-05-11T01:48:28.566Z,11.67
2018-05-11T01:50:56.879Z,11.73
2018-05-11T01:53:25.352Z,11.62
2018-05-11T01:55:53.637Z,11.60
2018-05-11T01:58:21.897Z,11.50
2018-05-11T02:00:50.173Z,11.48
2018-05-11T02:03:18.466Z,11.41
2018-05-11T02:05:46.734Z,11.39
2018-05-11T02:08:15.020Z,11.42
2018-05-11T02:10:43.314Z,11.36
2018-05-11T02:13:11.595Z,11.42
2018-05-11T02:15:39.892Z,11.38
2018-05-11T02:18:08.259Z,11.33
2018-05-11T02:20:36.529Z,11.34
2018-05-11T02:23:05.555Z,11.38
2018-05-11T02:25:33.853Z,11.43
2018-05-11T02:28:02.217Z,11.35
2018-05-11T02:30:31.269Z,11.19
2018-05-11T02:32:59.569Z,11.09
2018-05-11T02:35:27.866Z,11.08
2018-05-11T02:37:56.134Z,11.14
2018-05-11T02:40:24.504Z,11.25
2018-05-11T02:42:52.782Z,11.21
2018-05-11T02:45:21.086Z,11.30
2018-05-11T02:47:49.466Z,11.33
2018-05-11T02:50:17.766Z,11.35
2018-05-11T02:52:46.030Z,11.38
2018-05-11T02:55:15.112Z,11.34
2018-05-11T02:57:43.372Z,11.36
2018-05-11T03:00:11.749Z,11.42
2018-05-11T03:02:40.047Z,11.35
2018-05-11T03:05:08.296Z,11.36
2018-05-11T03:07:37.335Z,11.24
2018-05-11T03:10:05.711Z,11.25
2018-05-11T03:12:34.763Z,11.27
2018-05-11T03:15:03.125Z,11.20
2018-05-11T03:17:31.403Z,11.21
2018-05-11T03:20:00.522Z,11.22
2018-05-11T03:22:28.799Z,11.13
2018-05-11T03:24:57.915Z,11.16
2018-05-11T03:27:26.969Z,11.10
2018-05-11T03:32:23.661Z,11.07
2018-05-11T03:34:51.934Z,11.01
2018-05-11T03:37:20.213Z,10.97
2018-05-11T03:39:48.503Z,10.99
2018-05-11T03:42:16.749Z,11.00
2018-05-11T03:44:45.784Z,10.99
2018-05-11T03:47:14.071Z,10.99
2018-05-11T03:49:42.333Z,10.94
2018-05-11T03:52:10.583Z,10.97
2018-05-11T03:54:38.844Z,11.00
2018-05-11T03:57:07.121Z,11.08
2018-05-11T03:59:36.164Z,11.09
2018-05-11T04:02:22.463Z,11.12
2018-05-11T04:05:08.608Z,11.09
2018-05-11T04:07:54.806Z,11.20
2018-05-11T04:10:23.991Z,11.18
2018-05-11T04:12:52.385Z,11.10
2018-05-11T04:18:17.805Z,11.09
2018-05-11T04:20:46.091Z,11.12
2018-05-11T04:23:14.332Z,11.10
2018-05-11T04:25:42.644Z,11.16
2018-05-11T04:28:10.915Z,11.16
2018-05-11T04:30:39.205Z,11.15
2018-05-11T04:33:07.570Z,11.24
2018-05-11T04:35:36.591Z,11.33
2018-05-11T04:38:04.879Z,11.35
2018-05-11T04:40:33.144Z,11.52
2018-05-11T04:43:02.193Z,11.57
2018-05-11T04:45:30.575Z,11.72
2018-05-11T04:47:58.872Z,11.86
2018-05-11T04:50:27.170Z,11.91
2018-05-11T04:52:55.458Z,11.96
2018-05-11T04:55:23.774Z,12.05
2018-05-11T04:57:52.050Z,12.10
2018-05-11T05:00:20.353Z,12.21
2018-05-11T05:02:48.712Z,12.24
2018-05-11T05:05:16.971Z,12.38
2018-05-11T05:07:46.074Z,12.56
2018-05-11T05:10:14.396Z,12.66
2018-05-11T05:12:42.773Z,12.77
2018-05-11T05:15:11.818Z,12.94
2018-05-11T05:17:40.193Z,13.04
2018-05-11T05:20:09.224Z,13.19
2018-05-11T05:22:37.474Z,13.28
2018-05-11T05:25:06.680Z,13.35
2018-05-11T05:27:34.943Z,13.35
2018-05-11T05:30:03.218Z,13.50
2018-05-11T05:32:31.510Z,13.53
2018-05-11T05:34:59.800Z,13.68
2018-05-11T05:37:28.067Z,14.01
2018-05-11T05:39:56.451Z,14.36
2018-05-11T05:42:24.758Z,14.50
2018-05-11T05:44:53.129Z,14.41
2018-05-11T05:47:21.407Z,14.34
2018-05-11T05:49:49.699Z,14.35
2018-05-11T05:52:17.996Z,14.41
2018-05-11T05:54:47.106Z,14.48
2018-05-11T05:57:15.410Z,14.40
2018-05-11T05:59:43.687Z,14.40
2018-05-11T06:02:11.986Z,14.65
2018-05-11T06:04:40.291Z,14.39
2018-05-11T06:07:08.561Z,14.76
2018-05-11T06:09:36.853Z,15.03
2018-05-11T06:12:05.104Z,15.14
2018-05-11T06:14:33.417Z,15.02
2018-05-11T06:17:02.462Z,15.23
2018-05-11T06:19:30.830Z,15.60
2018-05-11T06:21:59.163Z,16.11
2018-05-11T06:24:27.453Z,16.31
2018-05-11T06:26:55.803Z,16.17
2018-05-11T06:29:24.990Z,16.71
2018-05-11T06:31:54.079Z,16.84
2018-05-11T06:34:22.331Z,16.74
2018-05-11T06:36:50.584Z,16.52
2018-05-11T06:39:19.664Z,16.60
2018-05-11T06:41:47.947Z,16.74
2018-05-11T06:44:17.183Z,16.20
2018-05-11T06:46:46.253Z,16.37
2018-05-11T06:49:14.756Z,16.56
2018-05-11T06:51:43.058Z,16.65
2018-05-11T06:54:11.348Z,17.13
2018-05-11T06:56:39.674Z,17.05
2018-05-11T06:59:08.807Z,17.86
2018-05-11T07:01:37.291Z,18.26
2018-05-11T07:04:05.451Z,18.50
2018-05-11T07:06:34.508Z,18.35
2018-05-11T07:09:02.772Z,19.25
2018-05-11T07:11:31.049Z,18.88
2018-05-11T07:14:00.076Z,17.85
2018-05-11T07:16:28.409Z,18.17
2018-05-11T07:18:56.673Z,18.67
2018-05-11T07:21:25.040Z,18.46
2018-05-11T07:23:54.143Z,17.86
2018-05-11T07:26:22.447Z,18.72
2018-05-11T07:28:50.718Z,19.35
2018-05-11T07:31:19.790Z,20.19
2018-05-11T07:33:48.136Z,19.26
2018-05-11T07:36:16.444Z,19.93
2018-05-11T07:38:44.759Z,19.88
2018-05-11T07:41:13.037Z,19.49
2018-05-11T07:43:41.284Z,19.27
2018-05-11T07:46:10.343Z,19.01
2018-05-11T07:48:38.777Z,18.02
2018-05-11T07:51:07.834Z,18.30
2018-05-11T07:53:36.130Z,18.99
2018-05-11T07:56:07.349Z,20.09
2018-05-11T07:58:36.383Z,18.41
2018-05-11T08:01:04.700Z,18.12
2018-05-11T08:03:32.961Z,18.47
2018-05-11T08:06:01.342Z,18.50
2018-05-11T08:08:29.615Z,19.40
2018-05-11T08:10:58.718Z,19.55
2018-05-11T08:13:27.829Z,19.61
2018-05-11T08:15:56.894Z,19.58
2018-05-11T08:18:25.257Z,18.85
2018-05-11T08:20:53.511Z,19.08
2018-05-11T08:23:22.557Z,19.53
2018-05-11T08:25:50.823Z,20.51
2018-05-11T08:28:19.889Z,21.24
2018-05-11T08:30:48.144Z,20.91
2018-05-11T08:33:16.471Z,21.58
2018-05-11T08:35:44.765Z,21.55
2018-05-11T08:38:13.016Z,21.92
2018-05-11T08:40:41.267Z,21.02
2018-05-11T08:43:10.341Z,20.94
2018-05-11T08:45:38.601Z,20.62
2018-05-11T08:48:06.867Z,20.66
2018-05-11T08:50:35.922Z,20.02
2018-05-11T08:53:04.237Z,20.55
2018-05-11T08:55:32.514Z,20.27
2018-05-11T08:58:00.792Z,19.96
2018-05-11T09:00:29.066Z,20.06
2018-05-11T09:02:57.961Z,21.14
2018-05-11T09:05:26.246Z,21.79
2018-05-11T09:07:55.284Z,22.21
2018-05-11T09:10:23.637Z,22.00
2018-05-11T09:12:52.714Z,22.49
2018-05-11T09:15:21.924Z,22.13
2018-05-11T09:17:55.464Z,21.31
2018-05-11T09:20:24.711Z,22.90
2018-05-11T09:22:52.964Z,23.72
2018-05-11T09:25:22.072Z,23.29
2018-05-11T09:27:50.540Z,23.45
2018-05-11T09:30:18.848Z,23.96
2018-05-11T09:32:47.225Z,24.61
2018-05-11T09:35:15.472Z,23.68
2018-05-11T09:37:45.187Z,23.81
2018-05-11T09:40:14.466Z,22.84
2018-05-11T09:42:43.541Z,22.20
2018-05-11T09:45:13.547Z,21.56
2018-05-11T09:47:43.144Z,21.71
2018-05-11T09:50:12.699Z,22.55
2018-05-11T09:52:41.643Z,22.81
2018-05-11T09:55:09.971Z,23.29
2018-05-11T09:57:38.216Z,22.91
2018-05-11T10:00:06.542Z,23.71
2018-05-11T10:02:35.579Z,23.81
2018-05-11T10:05:03.830Z,24.06
2018-05-11T10:07:32.864Z,24.49
2018-05-11T10:10:01.130Z,24.11
2018-05-11T10:12:30.173Z,25.17
2018-05-11T10:14:58.472Z,25.40
2018-05-11T10:17:26.748Z,24.32
2018-05-11T10:19:55.074Z,25.33
2018-05-11T10:22:23.377Z,24.38
2018-05-11T10:24:51.715Z,25.21
2018-05-11T10:27:20.727Z,25.52
2018-05-11T10:29:49.104Z,26.00
2018-05-11T10:32:20.139Z,25.17
2018-05-11T10:34:48.658Z,25.41
2018-05-11T10:37:17.415Z,24.63
2018-05-11T10:39:45.738Z,24.58
2018-05-11T10:42:14.077Z,23.73
2018-05-11T10:44:43.663Z,24.69
2018-05-11T10:47:12.894Z,24.98
2018-05-11T10:49:44.230Z,25.25
2018-05-11T10:52:12.565Z,24.89
2018-05-11T10:54:41.586Z,25.68
2018-05-11T10:57:10.368Z,26.80
2018-05-11T10:59:38.742Z,26.30
2018-05-11T11:02:06.983Z,25.49
2018-05-11T11:04:35.253Z,24.98
2018-05-11T11:07:03.513Z,25.08
2018-05-11T11:09:34.528Z,24.37
2018-05-11T11:12:03.477Z,24.11
2018-05-11T11:14:32.116Z,22.44
2018-05-11T11:17:01.538Z,24.16
2018-05-11T11:19:29.976Z,24.27
2018-05-11T11:21:59.428Z,24.83
2018-05-11T11:24:30.810Z,24.62
2018-05-11T11:27:00.265Z,24.29
2018-05-11T11:29:29.353Z,24.06
2018-05-11T11:31:57.882Z,23.36
2018-05-11T11:34:26.363Z,24.56
2018-05-11T11:36:54.586Z,25.03
2018-05-11T11:39:22.863Z,24.95
2018-05-11T11:41:51.147Z,25.17
2018-05-11T11:44:27.612Z,23.98
2018-05-11T11:46:57.488Z,24.24
2018-05-11T11:49:28.028Z,24.52
2018-05-11T11:51:57.031Z,24.27
2018-05-11T11:54:26.692Z,24.22
2018-05-11T11:56:56.061Z,24.01
2018-05-11T11:59:24.359Z,23.42
2018-05-11T12:01:52.676Z,25.09
2018-05-11T12:04:21.996Z,25.75
2018-05-11T12:06:50.325Z,25.15
2018-05-11T12:09:19.414Z,25.20
2018-05-11T12:11:48.447Z,25.58
2018-05-11T12:14:16.844Z,26.20
2018-05-11T12:16:45.513Z,26.11
2018-05-11T12:19:14.675Z,26.15
2018-05-11T12:21:44.003Z,26.26
2018-05-11T12:24:12.351Z,26.34
2018-05-11T12:26:40.948Z,25.54
2018-05-11T12:29:09.222Z,25.80
2018-05-11T12:31:38.349Z,25.96
2018-05-11T12:34:06.742Z,25.77
2018-05-11T12:36:34.991Z,25.77
2018-05-11T12:39:03.251Z,25.83
2018-05-11T12:41:31.517Z,25.39
2018-05-11T12:43:59.802Z,25.12
2018-05-11T12:46:28.105Z,25.89
2018-05-11T12:48:56.484Z,25.33
2018-05-11T12:51:24.740Z,24.47
2018-05-11T12:53:53.795Z,24.50
2018-05-11T12:56:23.636Z,25.33
2018-05-11T12:58:51.900Z,25.16
2018-05-11T13:01:20.192Z,24.54
2018-05-11T13:03:48.490Z,24.46
2018-05-11T13:06:16.735Z,25.41
2018-05-11T13:08:45.786Z,25.07
2018-05-11T13:11:14.045Z,24.82
2018-05-11T13:13:43.081Z,25.80
2018-05-11T13:16:11.331Z,24.90
2018-05-11T13:18:40.386Z,25.47
2018-05-11T13:21:08.718Z,25.77
2018-05-11T13:23:37.031Z,24.80
2018-05-11T13:26:06.070Z,24.77
2018-05-11T13:28:34.340Z,24.19
2018-05-11T13:31:03.094Z,23.96
2018-05-11T13:33:31.425Z,23.76
2018-05-11T13:36:00.439Z,23.66
2018-05-11T13:38:29.487Z,23.30
2018-05-11T13:40:57.774Z,23.35
2018-05-11T13:43:26.055Z,23.33
2018-05-11T13:45:54.363Z,23.15
2018-05-11T13:48:22.724Z,23.29
2018-05-11T13:50:50.978Z,23.59
2018-05-11T13:53:20.004Z,23.50
2018-05-11T13:55:48.268Z,23.73
2018-05-11T13:58:16.550Z,23.32
2018-05-11T14:00:44.816Z,23.41
2018-05-11T14:03:13.103Z,23.75
2018-05-11T14:05:41.373Z,24.07
2018-05-11T14:08:09.648Z,24.41
2018-05-11T14:10:38.667Z,24.88
2018-05-11T14:13:06.949Z,24.94
2018-05-11T14:15:35.970Z,25.35
2018-05-11T14:18:04.345Z,24.97
2018-05-11T14:20:35.036Z,24.52
2018-05-11T14:23:03.388Z,25.12
2018-05-11T14:25:31.713Z,25.56
2018-05-11T14:28:00.088Z,26.15
2018-05-11T14:30:28.366Z,25.69
2018-05-11T14:32:56.683Z,24.53
2018-05-11T14:35:29.552Z,24.28
2018-05-11T14:38:00.886Z,23.69
2018-05-11T14:40:31.122Z,23.52
2018-05-11T14:43:00.505Z,23.96
2018-05-11T14:45:30.132Z,23.34
2018-05-11T14:47:58.926Z,23.66
2018-05-11T14:50:27.218Z,23.70
2018-05-11T14:52:56.466Z,23.23
2018-05-11T14:55:27.091Z,23.61
2018-05-11T14:57:56.354Z,23.54
2018-05-11T15:00:27.927Z,24.26
2018-05-11T15:02:58.216Z,23.97
2018-05-11T15:05:27.862Z,24.42
2018-05-11T15:07:57.123Z,23.82
2018-05-11T15:10:25.438Z,24.15
2018-05-11T15:12:55.415Z,24.04
2018-05-11T15:15:23.701Z,24.18
2018-05-11T15:17:52.051Z,24.28
2018-05-11T15:20:20.303Z,24.51
2018-05-11T15:22:48.589Z,23.67
2018-05-11T15:25:17.155Z,24.21
2018-05-11T15:27:45.462Z,23.80
2018-05-11T15:30:13.707Z,23.90
2018-05-11T15:32:42.843Z,23.22
2018-05-11T15:35:11.857Z,23.04
2018-05-11T15:37:40.886Z,22.70
2018-05-11T15:40:09.149Z,22.55
2018-05-11T15:42:38.167Z,22.80
2018-05-11T15:45:06.419Z,23.05
2018-05-11T15:47:34.687Z,23.16
2018-05-11T15:50:02.961Z,23.17
2018-05-11T15:52:31.308Z,23.04
2018-05-11T15:55:00.400Z,22.87
2018-05-11T15:57:28.655Z,22.22
2018-05-11T15:59:56.929Z,22.48
2018-05-11T16:02:25.241Z,22.22
2018-05-11T16:04:53.527Z,22.64
2018-05-11T16:07:22.271Z,22.70
2018-05-11T16:10:03.662Z,22.78
2018-05-11T16:12:32.303Z,22.62
2018-05-11T16:15:00.588Z,22.54
2018-05-11T16:17:28.894Z,22.47
2018-05-11T16:19:57.163Z,22.70
2018-05-11T16:22:25.475Z,22.83
2018-05-11T16:24:53.732Z,22.92
2018-05-11T16:27:22.770Z,22.85
2018-05-11T16:29:51.021Z,22.75
2018-05-11T16:32:20.053Z,22.63
2018-05-11T16:34:48.314Z,22.68
2018-05-11T16:37:16.605Z,22.55
2018-05-11T16:39:45.646Z,22.71
2018-05-11T16:42:13.906Z,22.60
2018-05-11T16:44:42.940Z,22.43
2018-05-11T16:47:11.195Z,22.30
2018-05-11T16:49:40.221Z,22.48
2018-05-11T16:52:09.252Z,22.57
2018-05-11T16:54:37.495Z,22.88
2018-05-11T16:57:05.752Z,22.80
2018-05-11T16:59:34.030Z,22.43
2018-05-11T17:02:02.305Z,22.09
2018-05-11T17:04:30.570Z,22.21
2018-05-11T17:06:58.840Z,22.05
2018-05-11T17:09:28.371Z,22.13
2018-05-11T17:11:56.770Z,21.98
2018-05-11T17:14:25.076Z,22.13
2018-05-11T17:16:54.102Z,22.15
2018-05-11T17:19:22.382Z,21.92
2018-05-11T17:21:50.653Z,21.86
2018-05-11T17:24:19.703Z,21.72
2018-05-11T17:26:48.038Z,21.84
2018-05-11T17:29:16.370Z,21.89
2018-05-11T17:31:44.669Z,21.84
2018-05-11T17:34:12.912Z,21.75
2018-05-11T17:36:41.193Z,21.67
2018-05-11T17:39:09.459Z,21.60
2018-05-11T17:41:37.730Z,21.45
2018-05-11T17:44:05.989Z,21.53
2018-05-11T17:46:35.008Z,21.44
2018-05-11T17:49:03.330Z,21.24
2018-05-11T17:51:31.603Z,21.38
2018-05-11T17:53:59.851Z,21.30
2018-05-11T17:56:28.161Z,21.30
2018-05-11T17:58:56.468Z,21.38
2018-05-11T18:01:24.762Z,21.28
2018-05-11T18:03:53.029Z,21.25
2018-05-11T18:06:22.147Z,21.16
2018-05-11T18:08:52.193Z,21.17
2018-05-11T18:11:20.478Z,21.05
2018-05-11T18:13:48.807Z,21.04
2018-05-11T18:16:17.171Z,21.00
2018-05-11T18:18:45.484Z,20.98
2018-05-11T18:21:13.740Z,20.95
2018-05-11T18:23:42.025Z,20.92
2018-05-11T18:26:10.321Z,20.86
2018-05-11T18:28:38.713Z,20.75
2018-05-11T18:31:06.977Z,20.60
2018-05-11T18:33:35.991Z,20.55
2018-05-11T18:36:05.106Z,20.44
2018-05-11T18:38:34.331Z,20.22
2018-05-11T18:41:05.450Z,20.16
2018-05-11T18:43:34.910Z,20.06
2018-05-11T18:46:06.387Z,19.85
2018-05-11T18:48:34.948Z,19.86
2018-05-11T18:51:03.154Z,19.76
2018-05-11T18:53:31.759Z,19.68
2018-05-11T18:56:01.195Z,19.65
2018-05-11T18:58:29.698Z,19.52
2018-05-11T19:00:57.978Z,19.39
2018-05-11T19:03:26.266Z,19.35
2018-05-11T19:05:54.534Z,19.38
2018-05-11T19:08:22.845Z,19.26
2018-05-11T19:10:51.218Z,19.27
2018-05-11T19:13:20.320Z,19.18
2018-05-11T19:15:48.713Z,19.13
2018-05-11T19:18:17.012Z,19.04
2018-05-11T19:20:45.287Z,19.01
2018-05-11T19:23:13.593Z,18.96
2018-05-11T19:25:43.917Z,18.97
2018-05-11T19:28:12.943Z,18.94
2018-05-11T19:30:41.226Z,18.84
2018-05-11T19:33:10.258Z,18.85
2018-05-11T19:35:38.498Z,18.77
2018-05-11T19:38:06.799Z,18.83
2018-05-11T19:40:35.913Z,18.84
2018-05-11T19:43:04.268Z,18.80
2018-05-11T19:45:32.618Z,18.80
2018-05-11T19:48:00.910Z,18.73
2018-05-11T19:50:29.149Z,18.70
2018-05-11T19:52:57.425Z,18.68
2018-05-11T19:55:25.785Z,18.67
2018-05-11T19:57:54.187Z,18.69
2018-05-11T20:00:22.468Z,18.65
2018-05-11T20:02:50.854Z,18.67
2018-05-11T20:05:19.136Z,18.56
2018-05-11T20:07:48.175Z,18.54
2018-05-11T20:10:16.518Z,18.47
2018-05-11T20:12:44.810Z,18.47
2018-05-11T20:15:13.941Z,18.46
2018-05-11T20:17:42.972Z,18.48
2018-05-11T20:20:11.249Z,18.43
2018-05-11T20:22:39.535Z,18.46
2018-05-11T20:25:07.915Z,18.47
2018-05-11T20:27:36.195Z,18.45
2018-05-11T20:30:05.238Z,18.42
2018-05-11T20:32:33.598Z,18.40
2018-05-11T20:35:01.841Z,18.42
2018-05-11T20:37:30.289Z,18.35
2018-05-11T20:39:59.409Z,18.35
2018-05-11T20:42:27.695Z,18.37
2018-05-11T20:44:56.824Z,18.36
2018-05-11T20:47:25.120Z,18.33
2018-05-11T20:49:53.380Z,18.33
2018-05-11T20:52:21.648Z,18.32
2018-05-11T20:54:49.939Z,18.39
2018-05-11T20:57:18.987Z,18.37
2018-05-11T20:59:47.354Z,18.37
2018-05-11T21:02:16.373Z,18.29
2018-05-11T21:04:44.676Z,18.33
2018-05-11T21:07:13.816Z,18.31
2018-05-11T21:09:42.097Z,18.31
2018-05-11T21:12:10.380Z,18.30
2018-05-11T21:14:38.852Z,18.29
2018-05-11T21:17:07.050Z,18.23
2018-05-11T21:19:35.309Z,18.21
2018-05-11T21:22:04.320Z,18.19
2018-05-11T21:24:33.374Z,18.13
2018-05-11T21:27:01.641Z,18.17
2018-05-11T21:29:29.905Z,18.21
2018-05-11T21:31:59.137Z,18.19
2018-05-11T21:34:27.419Z,18.14
2018-05-11T21:36:55.803Z,18.09
2018-05-11T21:39:24.930Z,18.09
2018-05-11T21:41:53.189Z,18.12
2018-05-11T21:44:21.455Z,18.09
2018-05-11T21:46:49.707Z,18.09
2018-05-11T21:49:17.993Z,18.09
2018-05-11T21:51:46.266Z,18.00
2018-05-11T21:54:15.322Z,18.00
2018-05-11T21:56:43.583Z,18.09
2018-05-11T21:59:11.837Z,18.02
2018-05-11T22:01:41.536Z,17.99
2018-05-11T22:04:09.792Z,18.00
2018-05-11T22:06:38.056Z,18.05
2018-05-11T22:09:07.108Z,18.06
2018-05-11T22:11:35.385Z,18.08
2018-05-11T22:14:03.635Z,18.13
2018-05-11T22:16:32.659Z,18.14
2018-05-11T22:19:00.915Z,18.06
2018-05-11T22:21:29.206Z,18.11
2018-05-11T22:23:57.501Z,18.13
2018-05-11T22:26:25.784Z,18.12
2018-05-11T22:28:54.069Z,18.13
2018-05-11T22:31:22.333Z,18.06
2018-05-11T22:33:50.598Z,18.04
2018-05-11T22:36:18.865Z,17.93
2018-05-11T22:38:48.182Z,17.82
2018-05-11T22:41:16.479Z,17.89
2018-05-11T22:43:44.960Z,17.77
2018-05-11T22:46:14.007Z,17.70
2018-05-11T22:48:42.283Z,17.74
2018-05-11T22:51:10.543Z,17.69
2018-05-11T22:53:39.590Z,17.69
2018-05-11T22:56:07.845Z,17.62
2018-05-11T22:58:36.859Z,17.61
2018-05-11T23:01:05.213Z,17.62
2018-05-11T23:03:33.525Z,17.62
2018-05-11T23:06:01.809Z,17.61
2018-05-11T23:08:30.131Z,17.59
2018-05-11T23:10:58.406Z,17.55
2018-05-11T23:13:27.430Z,17.53
2018-05-11T23:15:55.846Z,17.52
2018-05-11T23:18:24.217Z,17.52
2018-05-11T23:20:52.514Z,17.46
2018-05-11T23:23:20.775Z,17.54
2018-05-11T23:25:49.803Z,17.51
2018-05-11T23:28:18.070Z,17.46
2018-05-11T23:30:47.110Z,17.48
2018-05-11T23:33:15.392Z,17.39
2018-05-11T23:35:43.648Z,17.36
2018-05-11T23:38:12.035Z,17.35
2018-05-11T23:40:40.291Z,17.33
2018-05-11T23:43:08.544Z,17.37
2018-05-11T23:45:36.843Z,17.38
2018-05-11T23:48:05.166Z,17.35
2018-05-11T23:50:33.593Z,17.39
2018-05-11T23:53:01.888Z,17.38
2018-05-11T23:55:30.177Z,17.32
2018-05-11T23:57:58.457Z,17.29
